M I D A S
Marine Information and Data Acquisition System
Tripno 310 of the Zeeleeuw from 2002-08-26 06:38:59 to 2002-08-26 12:56:00
Back to CruiseResearch ActivitiesStationsMapUnderway DataData graphs

EquipmentUnitsComment
TimeDGPSUTC
LatitudeDGPSDM.mWGS84
LongitudeDGPSDM.mWGS84
TemperatureSBE03/SBE38deg celciusITS90
ConductivitySBE21S/mITS90
SalinitySBE21 Practical Salinity Units
ChlorophylAChelsea fluorimeterg/lCalibrated in Aceton
Missing or incorrect values are displayed as -999
Sea surface data collected by the RV Zeeleeuw from 2002-08-26 06:38:59 to 2002-08-26 12:56:00
Time Latitude Longitude Temperature Conductivity Salinity ChlorophylA
2002-08-26 06:40:02 51°13.668 2°55.932 22.276773 0.057799 0.284465  
2002-08-26 06:41:02 51°13.682 2°55.854 46.484889 0.057799 0.284485  
2002-08-26 06:42:00 51°13.687 2°55.781 43.695711 0.057799 0.2845  
2002-08-26 06:43:00 51°13.686 2°55.744 44.309967 0.057799 0.284512  
2002-08-26 06:44:00 51°13.71 2°55.753 42.39051 0.057799 0.28454  
2002-08-26 06:45:02 51°13.786 2°55.677 43.668489 0.057799 0.284524  
2002-08-26 06:46:00 51°13.902 2°55.58 42.12246 0.057695 0.284036  
2002-08-26 06:47:00 51°14.035 2°55.48 42.652823 0.057695 0.284044  
2002-08-26 06:48:00 51°14.166 2°55.375 41.154151 0.057695 0.284072  
2002-08-26 06:49:00 51°14.279 2°55.225 41.757948 0.057799 0.284611  
2002-08-26 06:50:01 51°14.358 2°55.023 42.746609 0.057695 0.284095  
2002-08-26 06:51:00 51°14.373 2°54.783 41.056456 0.057695 0.284087  
2002-08-26 06:52:00 51°14.329 2°54.478 42.981856 0.057695 0.284111  
2002-08-26 06:53:00 51°14.244 2°54.174 41.923804 0.057695 0.284111  
2002-08-26 06:54:00 51°14.153 2°53.851 40.18048 0.057695 0.284139  
2002-08-26 06:55:01 51°14.052 2°53.485 39.013673 0.057695 0.28421  
2002-08-26 06:56:02 51°13.949 2°53.115 40.489884 0.057695 0.284139  
2002-08-26 06:57:00 51°13.852 2°52.753 35.218358 0.057695 0.284103  
2002-08-26 06:58:00 51°13.739 2°52.385 39.995373 0.057695 0.284178  
2002-08-26 06:59:00 51°13.621 2°52.018 41.204165 0.057695 0.284261  
2002-08-26 07:00:01 51°13.508 2°51.64 39.231361 0.057695 0.284226  
2002-08-26 07:01:00 51°13.397 2°51.273 21.427809 3.35799 22.57339  
2002-08-26 07:02:00 51°13.272 2°50.909 21.312196 4.394479 31.067077  
2002-08-26 07:03:00 51°13.142 2°50.552 21.198065 4.399649 31.156665  
2002-08-26 07:04:00 51°13.008 2°50.196 21.027382 4.394586 31.137478  
2002-08-26 07:05:00 51°12.878 2°49.833 20.994313 4.431718 31.437166  
2002-08-26 07:05:59 51°12.746 2°49.474 21.171604 4.4429 31.53561  
2002-08-26 07:07:00 51°12.615 2°49.102 21.055931 4.421802 31.368851  
2002-08-26 07:08:00 51°12.483 2°48.742 20.952167 4.438891 31.504848  
2002-08-26 07:09:00 51°12.354 2°48.379 21.133863 4.462733 31.697637  
2002-08-26 07:10:00 51°12.227 2°48.031 20.959991 4.471067 31.77421  
2002-08-26 07:11:01 51°12.103 2°47.679 20.949692 4.491111 31.941339  
2002-08-26 07:12:00 51°11.981 2°47.348 21.338328 4.509257 32.092509  
2002-08-26 07:13:00 51°11.861 2°47.002 21.011428 4.5235 32.20853  
2002-08-26 07:14:00 51°11.738 2°46.664 20.778048 4.533944 32.292781  
2002-08-26 07:15:01 51°11.611 2°46.317 20.774166 4.53827 32.329895  
2002-08-26 07:16:00 51°11.482 2°45.991 21.097099 4.541646 32.357861  
2002-08-26 07:17:00 51°11.348 2°45.66 21.131952 4.549242 32.42107  
2002-08-26 07:18:01 51°11.208 2°45.333 20.932522 4.55399 32.457862  
2002-08-26 07:19:01 51°11.076 2°45.012 20.860084 4.565701 32.557141  
2002-08-26 07:20:01 51°10.944 2°44.697 21.113313 4.569816 32.596391  
2002-08-26 07:21:00 51°10.812 2°44.392 20.901806 4.578363 32.671048  
2002-08-26 07:22:01 51°10.678 2°44.081 21.174549 4.580895 32.704153  
2002-08-26 07:23:01 51°10.554 2°43.766 20.899968 4.587753 32.772408  
2002-08-26 07:24:00 51°10.436 2°43.454 20.798176 4.603686 32.907397  
2002-08-26 07:25:00 51°10.332 2°43.123 20.950969 4.622783 33.063529  
2002-08-26 07:26:00 51°10.241 2°42.782 20.880748 4.628165 33.111527  
2002-08-26 07:27:00 51°10.157 2°42.436 20.812098 4.632702 33.153874  
2002-08-26 07:28:01 51°10.078 2°42.083 20.972046 4.637239 33.191875  
2002-08-26 07:28:59 51°10.008 2°41.747 20.971407 4.645153 33.258053  
2002-08-26 07:30:00 51°9.961 2°41.382 20.867639 4.650851 33.305391  
2002-08-26 07:31:00 51°9.917 2°41.018 20.779169 4.655494 33.34373  
2002-08-26 07:32:01 51°9.871 2°40.641 21.04098 4.65792 33.356615  
2002-08-26 07:33:00 51°9.828 2°40.269 20.973163 4.663513 33.403678  
2002-08-26 07:34:00 51°9.783 2°39.888 21.130279 4.666573 33.428782  
2002-08-26 07:35:01 51°9.743 2°39.494 21.062867 4.669739 33.45859  
2002-08-26 07:36:02 51°9.699 2°39.099 20.889979 4.672904 33.488409  
2002-08-26 07:37:00 51°9.657 2°38.721 20.985215 4.676281 33.521038  
2002-08-26 07:37:59 51°9.616 2°38.34 21.046761 4.679025 33.545281  
2002-08-26 07:39:00 51°9.581 2°37.945 20.885024 4.681452 33.565882  
2002-08-26 07:39:59 51°9.552 2°37.561 21.120164 4.68219 33.570158  
2002-08-26 07:41:00 51°9.516 2°37.162 21.122235 4.681135 33.557262  
2002-08-26 07:42:00 51°9.489 2°36.766 20.966857 4.683773 33.581215  
2002-08-26 07:43:00 51°9.502 2°36.372 20.75267 4.685884 33.618093  
2002-08-26 07:44:00 51°9.625 2°36.061 20.975079 4.689683 33.658613  
2002-08-26 07:45:01 51°9.822 2°35.881 20.940788 4.693693 33.696973  
2002-08-26 07:46:00 51°10.026 2°35.781 20.819978 4.697175 33.72221  
2002-08-26 07:47:00 51°10.217 2°35.874 20.759796 4.705301 33.835562  
2002-08-26 07:48:02 51°10.405 2°36.03 20.721075 4.711106 33.937831  
2002-08-26 07:49:00 51°10.587 2°36.167 20.930206 4.710473 33.963065  
2002-08-26 07:50:00 51°10.778 2°36.302 21.08403 4.708996 33.960125  
2002-08-26 07:51:01 51°10.965 2°36.453 20.680168 4.708574 33.970785  
2002-08-26 07:52:05 51°11.157 2°36.618 20.972724 4.706676 33.997134  
2002-08-26 07:53:05 51°11.337 2°36.771 20.59058 4.703405 33.98532  
2002-08-26 07:54:05 51°11.516 2°36.926 20.800696 4.702245 33.998509  
2002-08-26 07:55:04 51°11.692 2°37.075 20.655717 4.703195 34.019213  
2002-08-26 07:56:05 51°11.874 2°37.228 20.699482 4.695807 33.920976  
2002-08-26 07:57:05 51°12.053 2°37.379 20.86624 4.691163 33.83395  
2002-08-26 07:58:05 51°12.235 2°37.523 20.637433 4.66531 33.595578  
2002-08-26 07:59:04 51°12.417 2°37.656 20.695796 4.681982 33.707803  
2002-08-26 08:00:05 51°12.604 2°37.796 20.915228 4.672063 33.608894  
2002-08-26 08:01:04 51°12.783 2°37.939 20.865121 4.666681 33.548886  
2002-08-26 08:02:04 51°12.966 2°38.084 21.140433 4.658978 33.474689  
2002-08-26 08:03:04 51°13.148 2°38.228 20.859765 4.652963 33.416904  
2002-08-26 08:04:05 51°13.332 2°38.373 21.038827 4.650747 33.388606  
2002-08-26 08:05:05 51°13.514 2°38.517 21.243326 4.650641 33.374541  
2002-08-26 08:06:05 51°13.697 2°38.658 21.219785 4.641356 33.293875  
2002-08-26 08:07:03 51°13.882 2°38.752 21.038229 4.626161 33.161999  
2002-08-26 08:08:04 51°14.08 2°38.626 21.109688 4.610756 33.030758  
2002-08-26 08:09:04 51°14.15 2°38.293 21.012944 4.608224 33.005011  
2002-08-26 08:10:04 51°14.049 2°37.925 20.813178 4.6116 33.032086  
2002-08-26 08:11:03 51°13.938 2°37.565 20.970968 4.617403 33.082989  
2002-08-26 08:12:04 51°13.826 2°37.191 21.022955 4.626056 33.158966  
2002-08-26 08:13:04 51°13.72 2°36.824 20.915468 4.631859 33.213762  
2002-08-26 08:14:04 51°13.611 2°36.455 20.937514 4.638823 33.276275  
2002-08-26 08:15:05 51°13.501 2°36.081 20.920621 4.646843 33.35171  
2002-08-26 08:16:04 51°13.393 2°35.714 20.838375 4.652541 33.407442  
2002-08-26 08:17:04 51°13.281 2°35.346 20.814418 4.662354 33.505741  
2002-08-26 08:18:05 51°13.166 2°34.98 20.537069 4.681137 33.673696  
2002-08-26 08:19:05 51°13.056 2°34.618 21.030213 4.688102 33.734857  
2002-08-26 08:20:04 51°12.945 2°34.26 20.649222 4.687257 33.724705  
2002-08-26 08:21:06 51°12.828 2°33.89 20.882187 4.688946 33.73107  
2002-08-26 08:22:04 51°12.722 2°33.549 20.846332 4.691267 33.749227  
2002-08-26 08:23:04 51°12.62 2°33.196 20.972884 4.695277 33.786582  
2002-08-26 08:24:04 51°12.519 2°32.833 21.00309 4.696332 33.793416  
2002-08-26 08:25:04 51°12.415 2°32.479 20.846092 4.688524 33.741608  
2002-08-26 08:26:05 51°12.315 2°32.108 20.5669 4.695067 33.812828  
2002-08-26 08:27:05 51°12.222 2°31.738 20.840894 4.693801 33.814358  
2002-08-26 08:28:04 51°12.131 2°31.373 20.667663 4.693695 33.831988  
2002-08-26 08:29:04 51°12.036 2°31.004 20.596759 4.693485 33.870122  
2002-08-26 08:30:04 51°11.945 2°30.626 20.415728 4.693169 33.894552  
2002-08-26 08:31:05 51°11.852 2°30.239 20.66181 4.697285 33.973002  
2002-08-26 08:32:05 51°11.758 2°29.856 20.665218 4.699185 34.021223  
2002-08-26 08:33:04 51°11.668 2°29.485 20.63222 4.705623 34.100725  
2002-08-26 08:34:05 51°11.581 2°29.097 20.395652 4.70594 34.166526  
2002-08-26 08:35:04 51°11.509 2°28.719 20.648901 4.699927 34.165527  
2002-08-26 08:36:04 51°11.435 2°28.329 20.341953 4.696128 34.160871  
2002-08-26 08:37:04 51°11.365 2°27.932 20.321816 4.693912 34.155389  
2002-08-26 08:38:04 51°11.298 2°27.538 20.396457 4.692541 34.159083  
2002-08-26 08:39:04 51°11.227 2°27.143 20.257539 4.690325 34.155892  
2002-08-26 08:40:04 51°11.163 2°26.75 20.162648 4.690536 34.161626  
2002-08-26 08:41:04 51°11.106 2°26.357 20.208617 4.693596 34.178582  
2002-08-26 08:42:04 51°11.054 2°25.962 20.372833 4.69539 34.188639  
2002-08-26 08:43:04 51°11.058 2°25.565 20.639518 4.696234 34.194956  
2002-08-26 08:44:04 51°11.175 2°25.248 20.477409 4.697606 34.203286  
2002-08-26 08:45:04 51°11.368 2°25.207 19.986528 4.696868 34.201271  
2002-08-26 08:46:04 51°11.551 2°25.333 19.933772 4.686317 34.215021  
2002-08-26 08:47:04 51°11.735 2°25.453 20.294661 4.6764 34.212179  
2002-08-26 08:48:04 51°11.915 2°25.576 20.210311 4.673656 34.207578  
2002-08-26 08:49:04 51°12.094 2°25.701 19.90509 4.671863 34.210194  
2002-08-26 08:50:04 51°12.266 2°25.834 20.139148 4.671125 34.227266  
2002-08-26 08:51:04 51°12.421 2°26.007 20.066093 4.668276 34.198085  
2002-08-26 08:52:04 51°12.578 2°26.19 20.315814 4.669119 34.174974  
2002-08-26 08:53:04 51°12.731 2°26.371 20.252983 4.669014 34.171222  
2002-08-26 08:54:04 51°12.888 2°26.552 20.307394 4.669435 34.142976  
2002-08-26 08:55:04 51°13.049 2°26.739 20.309892 4.672072 34.126033  
2002-08-26 08:56:04 51°13.212 2°26.926 20.153241 4.673127 34.097915  
2002-08-26 08:57:06 51°13.364 2°27.145 20.626365 4.674393 34.084189  
2002-08-26 08:58:05 51°13.506 2°27.359 20.311624 4.67513 34.044453  
2002-08-26 08:59:04 51°13.648 2°27.573 20.429887 4.668271 33.962839  
2002-08-26 09:00:05 51°13.795 2°27.793 20.288052 4.677346 34.018018  
2002-08-26 09:01:06 51°13.941 2°28.012 20.332248 4.677451 34.004066  
2002-08-26 09:02:06 51°14.086 2°28.23 20.440222 4.677978 33.999825  
2002-08-26 09:03:05 51°14.23 2°28.447 20.186302 4.677873 33.99043  
2002-08-26 09:04:06 51°14.38 2°28.67 20.385913 4.678295 33.989317  
2002-08-26 09:05:05 51°14.521 2°28.893 20.15534 4.678295 33.987042  
2002-08-26 09:06:05 51°14.663 2°29.122 20.323064 4.6784 33.987901  
2002-08-26 09:07:04 51°14.801 2°29.347 20.228907 4.678189 33.982203  
2002-08-26 09:08:06 51°14.951 2°29.581 20.390622 4.677767 33.975925  
2002-08-26 09:09:06 51°15.094 2°29.806 20.480544 4.668691 33.829657  
2002-08-26 09:10:06 51°15.24 2°30.031 20.316216 4.663836 33.763778  
2002-08-26 09:11:05 51°15.382 2°30.254 20.684336 4.663414 33.735056  
2002-08-26 09:12:06 51°15.528 2°30.483 20.40736 4.660881 33.717337  
2002-08-26 09:13:05 51°15.668 2°30.701 20.676481 4.674705 33.88189  
2002-08-26 09:14:06 51°15.815 2°30.925 20.678004 4.667846 33.806448  
2002-08-26 09:15:06 51°15.959 2°31.145 20.619506 4.656977 33.667756  
2002-08-26 09:16:06 51°16.105 2°31.365 20.491636 4.641676 33.492603  
2002-08-26 09:17:04 51°16.245 2°31.58 20.476525 4.637771 33.440503  
2002-08-26 09:18:04 51°16.392 2°31.803 20.586848 4.632073 33.382857  
2002-08-26 09:19:04 51°16.541 2°32.027 20.594151 4.628697 33.346755  
2002-08-26 09:20:04 51°16.691 2°32.248 20.804417 4.625953 33.315231  
2002-08-26 09:21:06 51°16.849 2°32.472 20.767001 4.627747 33.325831  
2002-08-26 09:22:06 51°17.001 2°32.685 20.740378 4.628802 33.336551  
2002-08-26 09:23:05 51°17.148 2°32.895 20.886463 4.618356 33.239092  
2002-08-26 09:24:05 51°17.299 2°33.107 20.69227 4.616773 33.221384  
2002-08-26 09:25:05 51°17.451 2°33.319 20.768362 4.615507 33.206782  
2002-08-26 09:26:05 51°17.597 2°33.535 20.905082 4.620783 33.249838  
2002-08-26 09:27:06 51°17.733 2°33.769 20.913471 4.624792 33.287662  
2002-08-26 09:28:05 51°17.864 2°33.99 21.01434 4.621732 33.265204  
2002-08-26 09:29:06 51°18 2°34.22 20.656078 4.621205 33.258748  
2002-08-26 09:30:05 51°18.131 2°34.442 20.690788 4.625742 33.294214  
2002-08-26 09:31:06 51°18.268 2°34.673 20.662251 4.627219 33.303914  
2002-08-26 09:32:06 51°18.404 2°34.906 20.895853 4.627219 33.301156  
2002-08-26 09:33:06 51°18.539 2°35.139 20.53723 4.625531 33.284794  
2002-08-26 09:34:06 51°18.674 2°35.375 20.472184 4.622682 33.259084  
2002-08-26 09:35:04 51°18.806 2°35.602 20.796696 4.618461 33.226182  
2002-08-26 09:36:06 51°18.943 2°35.844 20.93971 4.612764 33.186331  
2002-08-26 09:37:06 51°19.077 2°36.08 20.884864 4.603268 33.12905  
2002-08-26 09:38:06 51°19.212 2°36.316 20.692951 4.598415 33.110248  
2002-08-26 09:39:06 51°19.346 2°36.551 20.497382 4.593773 33.116219  
2002-08-26 09:40:04 51°19.475 2°36.778 20.556945 4.591558 33.118143  
2002-08-26 09:41:05 51°19.609 2°37.016 20.641243 4.592085 33.12846  
2002-08-26 09:42:06 51°19.744 2°37.255 20.467682 4.594723 33.15969  
2002-08-26 09:43:05 51°19.874 2°37.482 20.29865 4.59715 33.184266  
2002-08-26 09:44:06 51°20.007 2°37.719 20.464185 4.59504 33.16942  
2002-08-26 09:45:04 51°20.127 2°37.951 20.51771 4.595357 33.174185  
2002-08-26 09:46:05 51°20.239 2°38.212 20.586326 4.598522 33.208059  
2002-08-26 09:47:05 51°20.35 2°38.465 20.578621 4.588393 33.100838  
2002-08-26 09:48:06 51°20.459 2°38.729 20.815098 4.583855 33.038933  
2002-08-26 09:49:06 51°20.564 2°38.99 20.541326 4.581112 33.010769  
2002-08-26 09:50:06 51°20.67 2°39.252 20.467642 4.58069 32.996953  
2002-08-26 09:51:06 51°20.772 2°39.518 20.647618 4.580584 32.997198  
2002-08-26 09:52:06 51°20.871 2°39.786 20.588373 4.57668 32.950953  
2002-08-26 09:53:05 51°20.968 2°40.053 20.521205 4.576575 32.950102  
2002-08-26 09:54:04 51°21.066 2°40.321 20.507989 4.578157 32.966139  
2002-08-26 09:55:06 51°21.17 2°40.607 20.630215 4.580057 32.990754  
2002-08-26 09:56:06 51°21.286 2°40.872 20.721275 4.580901 33.004134  
2002-08-26 09:57:05 51°21.401 2°41.13 20.646776 4.582273 33.022873  
2002-08-26 09:58:04 51°21.504 2°41.402 20.552288 4.583433 33.033882  
2002-08-26 09:59:06 51°21.594 2°41.709 20.586005 4.584383 33.039897  
2002-08-26 10:00:05 51°21.678 2°42.006 20.882747 4.583961 33.035943  
2002-08-26 10:01:05 51°21.76 2°42.303 20.722797 4.58491 33.042506  
2002-08-26 10:02:06 51°21.828 2°42.609 20.658884 4.58586 33.045777  
2002-08-26 10:03:06 51°21.878 2°42.919 20.628009 4.586071 33.045284  
2002-08-26 10:04:05 51°21.91 2°43.238 20.67123 4.585227 33.036281  
2002-08-26 10:05:06 51°21.899 2°43.482 20.714946 4.582589 33.00624  
2002-08-26 10:06:06 51°21.855 2°43.588 20.686259 4.580267 32.979864  
2002-08-26 10:07:06 51°21.771 2°43.628 20.607311 4.579529 32.970629  
2002-08-26 10:08:06 51°21.697 2°43.436 20.630856 4.577946 32.952955  
2002-08-26 10:09:06 51°21.817 2°43.287 20.629814 4.577313 32.945122  
2002-08-26 10:10:06 51°22.005 2°43.16 20.690748 4.578896 32.961153  
2002-08-26 10:11:04 51°22.195 2°43.029 20.711101 4.581745 32.991222  
2002-08-26 10:12:05 51°22.396 2°42.892 21.076897 4.585121 33.023369  
2002-08-26 10:13:06 51°22.593 2°42.728 20.994952 4.58491 33.012902  
2002-08-26 10:14:06 51°22.779 2°42.53 20.641163 4.584065 32.994057  
2002-08-26 10:15:04 51°22.958 2°42.338 20.748466 4.584487 32.99308  
2002-08-26 10:16:05 51°23.15 2°42.138 20.785572 4.582799 32.96855  
2002-08-26 10:17:06 51°23.343 2°41.94 20.518875 4.589025 33.046071  
2002-08-26 10:18:06 51°23.535 2°41.751 20.7646 4.592718 33.108254  
2002-08-26 10:19:05 51°23.725 2°41.573 20.535624 4.600738 33.216024  
2002-08-26 10:20:06 51°23.92 2°41.39 20.419549 4.607914 33.333386  
2002-08-26 10:21:06 51°24.113 2°41.225 20.328502 4.612662 33.410299  
2002-08-26 10:22:06 51°24.308 2°41.071 20.387201 4.615934 33.476529  
2002-08-26 10:23:04 51°24.497 2°40.925 20.221002 4.618783 33.531075  
2002-08-26 10:24:06 51°24.698 2°40.771 20.33551 4.622899 33.591537  
2002-08-26 10:25:06 51°24.893 2°40.625 20.458115 4.624271 33.608897  
2002-08-26 10:26:06 51°25.092 2°40.502 20.343201 4.62617 33.633381  
2002-08-26 10:27:06 51°25.299 2°40.444 20.116124 4.628175 33.666081  
2002-08-26 10:28:06 51°25.508 2°40.423 20.114751 4.631447 33.717632  
2002-08-26 10:29:05 51°25.711 2°40.393 20.237498 4.632819 33.75263  
2002-08-26 10:30:04 51°25.914 2°40.362 20.281241 4.629548 33.7214  
2002-08-26 10:31:06 51°26.128 2°40.351 20.366674 4.623427 33.626831  
2002-08-26 10:32:06 51°26.264 2°40.543 20.728084 4.620789 33.570424  
2002-08-26 10:33:05 51°26.359 2°40.799 20.583356 4.621422 33.564327  
2002-08-26 10:34:06 51°26.446 2°41.075 20.524057 4.622582 33.579956  
2002-08-26 10:35:06 51°26.529 2°41.35 20.461009 4.622582 33.574893  
2002-08-26 10:36:06 51°26.613 2°41.628 20.433144 4.623426 33.579511  
2002-08-26 10:37:05 51°26.697 2°41.901 20.470898 4.623321 33.575278  
2002-08-26 10:38:06 51°26.784 2°42.181 20.360032 4.623321 33.574154  
2002-08-26 10:39:06 51°26.871 2°42.459 20.485809 4.62311 33.579185  
2002-08-26 10:40:06 51°26.955 2°42.738 20.249152 4.620471 33.529646  
2002-08-26 10:41:06 51°27.042 2°43.016 20.390823 4.618572 33.501317  
2002-08-26 10:42:06 51°27.125 2°43.299 20.567904 4.617939 33.487772  
2002-08-26 10:43:06 51°27.196 2°43.589 20.325642 4.617939 33.481055  
2002-08-26 10:44:05 51°27.267 2°43.877 20.283216 4.617411 33.480129  
2002-08-26 10:45:06 51°27.34 2°44.171 20.498989 4.616039 33.447743  
2002-08-26 10:46:06 51°27.279 2°44.457 20.804737 4.615406 33.434227  
2002-08-26 10:47:06 51°27.081 2°44.641 20.338409 4.614456 33.417595  
2002-08-26 10:48:05 51°26.863 2°44.791 20.486211 4.611501 33.369683  
2002-08-26 10:49:05 51°26.641 2°44.937 20.476204 4.611712 33.385872  
2002-08-26 10:50:06 51°26.418 2°45.093 20.523133 4.610762 33.35869  
2002-08-26 10:51:06 51°26.2 2°45.253 20.785532 4.610235 33.347742  
2002-08-26 10:52:06 51°25.985 2°45.418 20.408648 4.610551 33.354199  
2002-08-26 10:53:05 51°25.772 2°45.585 20.655837 4.610024 33.362721  
2002-08-26 10:54:06 51°25.552 2°45.761 20.557989 4.607281 33.346609  
2002-08-26 10:55:05 51°25.336 2°45.93 20.591784 4.607175 33.34631  
2002-08-26 10:56:06 51°25.115 2°46.11 20.517791 4.60707 33.346568  
2002-08-26 10:57:06 51°24.898 2°46.286 20.228101 4.60612 33.346105  
2002-08-26 10:58:06 51°24.688 2°46.46 20.209787 4.603377 33.310524  
2002-08-26 10:59:05 51°24.667 2°46.742 20.610039 4.589025 33.08175  
2002-08-26 11:00:06 51°24.771 2°47.009 20.740658 4.588602 33.007626  
2002-08-26 11:01:06 51°24.869 2°47.282 20.847531 4.590501 33.024014  
2002-08-26 11:02:04 51°24.963 2°47.552 20.654554 4.590923 33.046579  
2002-08-26 11:03:06 51°25.066 2°47.844 20.66141 4.592296 33.079574  
2002-08-26 11:04:06 51°25.161 2°48.134 20.747986 4.59219 33.097399  
2002-08-26 11:05:04 51°25.257 2°48.413 20.821738 4.592401 33.100201  
2002-08-26 11:06:04 51°25.356 2°48.7 20.429525 4.593456 33.103768  
2002-08-26 11:07:06 51°25.454 2°49 20.76516 4.594511 33.110081  
2002-08-26 11:08:06 51°25.548 2°49.291 20.549718 4.594617 33.103788  
2002-08-26 11:09:04 51°25.639 2°49.572 20.786492 4.594511 33.0925  
2002-08-26 11:10:06 51°25.737 2°49.869 20.598444 4.595144 33.091566  
2002-08-26 11:11:06 51°25.833 2°50.159 20.799696 4.59525 33.089672  
2002-08-26 11:12:06 51°25.955 2°50.405 20.78141 4.594722 33.076092  
2002-08-26 11:13:04 51°26.142 2°50.334 20.580627 4.594722 33.068416  
2002-08-26 11:14:06 51°26.331 2°50.126 20.581912 4.59641 33.091893  
2002-08-26 11:15:04 51°26.51 2°49.936 20.562043 4.59736 33.123717  
2002-08-26 11:16:06 51°26.701 2°49.731 20.685779 4.597888 33.142276  
2002-08-26 11:17:06 51°26.883 2°49.53 20.600691 4.60232 33.224396  
2002-08-26 11:18:04 51°27.056 2°49.33 20.619947 4.604431 33.257499  
2002-08-26 11:19:04 51°27.241 2°49.137 20.658523 4.605064 33.250443  
2002-08-26 11:20:03 51°27.426 2°48.955 20.776367 4.604114 33.237789  
2002-08-26 11:21:06 51°27.626 2°48.765 20.731207 4.605063 33.231093  
2002-08-26 11:22:06 51°27.818 2°48.585 20.980028 4.608018 33.269902  
2002-08-26 11:23:06 51°28.016 2°48.42 20.778968 4.609601 33.288235  
2002-08-26 11:24:04 51°28.208 2°48.263 20.511484 4.614877 33.377004  
2002-08-26 11:25:04 51°28.407 2°48.113 20.345416 4.623953 33.543916  
2002-08-26 11:26:04 51°28.605 2°48.154 20.207931 4.628808 33.639633  
2002-08-26 11:27:04 51°28.688 2°48.448 20.756073 4.63018 33.680157  
2002-08-26 11:28:04 51°28.753 2°48.772 20.399193 4.629758 33.678978  
2002-08-26 11:29:04 51°28.816 2°49.094 20.304936 4.628808 33.665026  
2002-08-26 11:30:04 51°28.881 2°49.418 20.277896 4.626065 33.643241  
2002-08-26 11:31:04 51°28.951 2°49.735 20.286602 4.62617 33.638458  
2002-08-26 11:32:04 51°29.027 2°50.048 20.467682 4.62617 33.626051  
2002-08-26 11:33:06 51°29.106 2°50.372 20.377663 4.625853 33.620092  
2002-08-26 11:34:06 51°29.181 2°50.69 20.157723 4.625431 33.60539  
2002-08-26 11:35:06 51°29.26 2°51.005 20.2577 4.624692 33.586998  
2002-08-26 11:36:06 51°29.338 2°51.32 20.224511 4.623848 33.557652  
2002-08-26 11:37:06 51°29.416 2°51.637 20.592907 4.622054 33.543072  
2002-08-26 11:38:04 51°29.493 2°51.945 20.504614 4.620682 33.528556  
2002-08-26 11:39:06 51°29.519 2°52.297 20.691268 4.62026 33.514472  
2002-08-26 11:40:06 51°29.362 2°52.554 20.581229 4.61931 33.486036  
2002-08-26 11:41:04 51°29.149 2°52.701 20.491917 4.616144 33.447481  
2002-08-26 11:42:04 51°28.925 2°52.853 20.580828 4.614772 33.403433  
2002-08-26 11:43:04 51°28.697 2°52.99 20.327173 4.612451 33.368473  
2002-08-26 11:44:06 51°28.461 2°53.135 20.895613 4.611712 33.338032  
2002-08-26 11:45:06 51°28.236 2°53.283 20.891418 4.610443 33.208335  
2002-08-26 11:46:06 51°28.01 2°53.43 20.682733 4.611392 33.159357  
2002-08-26 11:47:06 51°27.787 2°53.589 20.931044 4.610442 33.166534  
2002-08-26 11:48:06 51°27.564 2°53.757 20.856806 4.607278 33.192167  
2002-08-26 11:49:06 51°27.342 2°53.922 20.657 4.60464 33.154938  
2002-08-26 11:50:05 51°27.119 2°54.066 20.747705 4.600735 33.069194  
2002-08-26 11:51:06 51°26.886 2°54.208 20.855247 4.601156 33.033239  
2002-08-26 11:52:06 51°26.657 2°54.357 21.009832 4.60126 32.96873  
2002-08-26 11:53:06 51°26.43 2°54.5 21.144773 4.597778 32.908261  
2002-08-26 11:54:03 51°26.216 2°54.639 21.292015 4.599255 32.896269  
2002-08-26 11:55:06 51°25.98 2°54.797 20.908517 4.597566 32.873561  
2002-08-26 11:56:03 51°25.763 2°54.942 20.888541 4.594084 32.835437  
2002-08-26 11:57:06 51°25.526 2°55.109 21.226665 4.589547 32.791059  
2002-08-26 11:58:06 51°25.308 2°55.278 21.509177 4.584588 32.73796  
2002-08-26 11:59:06 51°25.087 2°55.436 21.039624 4.578046 32.670665  
2002-08-26 12:00:06 51°24.869 2°55.601 21.091282 4.574775 32.629016  
2002-08-26 12:01:06 51°24.646 2°55.767 21.25418 4.571293 32.589469  
2002-08-26 12:02:06 51°24.419 2°55.925 21.095944 4.572665 32.605222  
2002-08-26 12:03:06 51°24.197 2°56.076 21.177613 4.57583 32.653506  
2002-08-26 12:04:06 51°23.973 2°56.223 21.223205 4.576042 32.690069  
2002-08-26 12:05:06 51°23.747 2°56.384 21.225074 4.575937 32.699974  
2002-08-26 12:06:06 51°23.522 2°56.543 21.362584 4.573616 32.677651  
2002-08-26 12:07:06 51°23.297 2°56.701 20.911793 4.573299 32.671361  
2002-08-26 12:08:06 51°23.072 2°56.853 21.111321 4.574143 32.672739  
2002-08-26 12:09:06 51°22.847 2°57.008 21.363577 4.574565 32.670208  
2002-08-26 12:10:06 51°22.618 2°57.147 21.079288 4.568867 32.60379  
2002-08-26 12:11:06 51°22.376 2°57.227 20.974001 4.55494 32.456919  
2002-08-26 12:12:06 51°22.132 2°57.279 21.353454 4.533521 32.232368  
2002-08-26 12:13:06 51°21.882 2°57.309 21.281485 4.526769 32.176574  
2002-08-26 12:14:06 51°21.638 2°57.345 20.946897 4.540801 32.295021  
2002-08-26 12:15:06 51°21.389 2°57.376 21.026305 4.537742 32.284942  
2002-08-26 12:16:06 51°21.143 2°57.421 21.270397 4.532678 32.25943  
2002-08-26 12:17:06 51°20.898 2°57.457 21.124903 4.53194 32.264648  
2002-08-26 12:18:06 51°20.655 2°57.499 21.328281 4.522972 32.199579  
2002-08-26 12:19:06 51°20.409 2°57.544 20.986014 4.518119 32.153566  
2002-08-26 12:20:06 51°20.164 2°57.581 21.295074 4.511683 32.089737  
2002-08-26 12:21:06 51°19.918 2°57.594 21.351866 4.501661 32.006367  
2002-08-26 12:22:06 51°19.678 2°57.518 21.227421 4.491427 31.926075  
2002-08-26 12:23:04 51°19.503 2°57.28 21.169295 4.479295 31.823951  
2002-08-26 12:24:06 51°19.377 2°56.943 21.320855 4.474442 31.785934  
2002-08-26 12:25:06 51°19.281 2°56.59 21.2853 4.473704 31.77903  
2002-08-26 12:26:03 51°19.194 2°56.254 21.074545 4.48035 31.825038  
2002-08-26 12:27:06 51°19.1 2°55.882 20.902245 4.482354 31.840955  
2002-08-26 12:28:06 51°19.008 2°55.527 20.95077 4.482354 31.846687  
2002-08-26 12:29:06 51°18.918 2°55.167 21.204192 4.48246 31.848567  
2002-08-26 12:30:06 51°18.828 2°54.809 21.207772 4.484042 31.85436  
2002-08-26 12:31:06 51°18.735 2°54.451 21.226426 4.473176 31.767044  
2002-08-26 12:32:06 51°18.644 2°54.099 21.550401 4.479506 31.804288  
2002-08-26 12:33:06 51°18.557 2°53.744 21.076538 4.467374 31.713208  
2002-08-26 12:34:06 51°18.468 2°53.391 21.144017 4.458302 31.648482  
2002-08-26 12:35:06 51°18.374 2°53.043 21.378182 4.454398 31.617  
2002-08-26 12:36:06 51°18.271 2°52.699 20.989046 4.452288 31.594063  
2002-08-26 12:37:06 51°18.116 2°52.41 21.016334 4.449968 31.579791  
2002-08-26 12:38:06 51°17.908 2°52.232 21.257638 4.447225 31.559073  
2002-08-26 12:39:06 51°17.671 2°52.209 21.285697 4.447436 31.550425  
2002-08-26 12:40:06 51°17.43 2°52.227 21.478551 4.44406 31.531915  
2002-08-26 12:41:04 51°17.197 2°52.313 21.443432 4.445009 31.537895  
2002-08-26 12:42:06 51°16.965 2°52.441 21.0918 4.449651 31.570569  
2002-08-26 12:43:06 51°16.741 2°52.592 21.353931 4.448385 31.563629  
2002-08-26 12:44:06 51°16.524 2°52.763 21.130717 4.445748 31.538592  
2002-08-26 12:45:06 51°16.311 2°52.938 21.23776 4.437308 31.465529  
2002-08-26 12:46:06 51°16.098 2°53.119 21.50997 4.432245 31.428496  
2002-08-26 12:47:06 51°15.888 2°53.307 21.12339 4.428237 31.413174  
2002-08-26 12:48:03 51°15.686 2°53.486 21.205385 4.428553 31.425449  
2002-08-26 12:49:03 51°15.477 2°53.675 20.964861 4.421169 31.380266  
2002-08-26 12:50:06 51°15.255 2°53.868 21.1763 4.410937 31.3135  
2002-08-26 12:51:06 51°15.05 2°54.057 21.335707 4.401865 31.225206  
2002-08-26 12:52:06 51°14.855 2°54.275 21.152577 4.393743 31.157801  
2002-08-26 12:53:06 51°14.664 2°54.484 20.931803 4.39543 31.161988  
2002-08-26 12:54:05 51°14.509 2°54.703 21.376475 4.392055 31.138319  
2002-08-26 12:55:06 51°14.387 2°54.975 21.055492 4.391528 31.146884